Aérodrome :
LOGIN :

S'inscrire | Disclaimer

   EN    FR    IT 

 










Légende :    VFR   VFR Marginal   IFR   IFR Intensif   IFR Très Intensif
Visi : 
Plafond : 
>= 8 km
>= 3000ft
5 à 8 km
1000 à 3000 ft
1500m à 5 km
500 à 1000 ft
800 à 1500m
200 à 500 ft
< 800m
< 200 ft
Symboles :   Orages  Brouillard  Fortes neiges  Fortes précipitations  Vent > 20 kt
SIGMETs :   Divers  Orages  Givrage  Turbulence  Onde Orograph.  Cendres Volcan.






- Altitude de l'aérodrome : 106 ft
- Code IATA : NRN


EDLV - Weeze

DERNIER METAR :
  • 280850Z VRB02KT 9999 FEW007 BKN038 04/03 Q0997

METARs EXPIRÉS :
  • 280820Z VRB02KT 9000 BKN037 03/02 Q0997
  • 280750Z 00000KT 9000 BKN036 02/01 Q0997
  • 280720Z 00000KT 9999 BKN038 02/01 Q0996
  • 280650Z 00000KT 9999 BKN038 02/01 Q0996
  • 280620Z 00000KT 9999 BKN038 02/01 Q0996

TAF TAF EDLV
Valide du 28 à 06h jusqu'au 29 à 06h UTC


280500Z 2806/2906 VRB02KT 9000 BKN025
PROB40
TEMPO 2806/2812 4000 BR BKN004
TEMPO 2812/2816 2000 -SHRASN BKN004TCU
BECMG 2820/2823 28005KT
PROB30
TEMPO 2900/2906 1200 BCFG BKN003



MET'MAP, la Météo Aéronautique d'un coup d'oeil ! - Copyright ORBIFLY Décembre 2007 - Disclaimer

ORBIFLY MET'MAP TEAM :

Programmation & Développement : Alexandra Zaïnal
Sur une idée originale de : Baudouin d'Aumeries
Assistance à la programmation : Marc-Olivier Méhu
Soutien technique & logistique : Manuel Goepfert

Contact : metmap@orbifly.com




SOURCES & CREDITS :

   NOAA